Time;durP1;ratioP1;P1;durP2;ratioP2;P2;SDS_P1;SDS_P2;PMS_P1;PMS_P2;Temp;Humidity;BMP_temperature;BMP_pressure;BME280_temperature;BME280_humidity;BME280_pressure;Samples;Min_cycle;Max_cycle;Signal;HPM_P1;HPM_P2
2022/06/06 00:00:46;;;;;;;31.38;9.98;;;;;;;;;;5072783;28;20052;-69
2022/06/06 00:03:14;;;;;;;35.28;10.77;;;;;;;;;;5073036;28;20101;-69
2022/06/06 00:05:42;;;;;;;28.15;10.15;;;;;;;;;;5068340;28;20056;-69
2022/06/06 00:08:11;;;;;;;41.72;11.55;;;;;;;;;;5075669;28;20056;-69
2022/06/06 00:10:39;;;;;;;49.17;12.80;;;;;;;;;;5072941;28;20059;-69
2022/06/06 00:13:08;;;;;;;23.60;8.02;;;;;;;;;;5075596;28;20304;-69
2022/06/06 00:15:36;;;;;;;24.38;9.30;;;;;;;;;;5080677;28;20117;-69
2022/06/06 00:18:03;;;;;;;26.45;9.48;;;;;;;;;;5075071;28;20320;-69
2022/06/06 00:20:31;;;;;;;32.65;9.30;;;;;;;;;;5079020;28;20059;-69
2022/06/06 00:22:59;;;;;;;37.70;10.05;;;;;;;;;;5080801;28;20058;-69
2022/06/06 00:25:26;;;;;;;28.92;9.40;;;;;;;;;;5074984;28;20059;-69
2022/06/06 00:27:53;;;;;;;38.35;10.05;;;;;;;;;;5079861;28;20044;-69
2022/06/06 00:30:22;;;;;;;52.50;11.75;;;;;;;;;;5077437;28;20097;-69
2022/06/06 00:35:34;;;;;;;38.80;12.27;;;;;;;;;;5075052;28;20055;-69
2022/06/06 00:38:01;;;;;;;21.50;8.27;;;;;;;;;;5078319;28;20521;-69
2022/06/06 00:40:30;;;;;;;36.60;10.20;;;;;;;;;;5075233;28;20048;-69
2022/06/06 00:42:57;;;;;;;27.38;9.95;;;;;;;;;;5075614;28;20521;-69
2022/06/06 00:45:33;;;;;;;28.67;8.80;;;;;;;;;;5071715;28;20110;-69
2022/06/06 00:48:04;;;;;;;34.53;9.50;;;;;;;;;;5078352;28;20052;-69
2022/06/06 00:50:39;;;;;;;27.48;9.35;;;;;;;;;;5075632;28;20133;-70
2022/06/06 00:53:07;;;;;;;33.55;10.23;;;;;;;;;;5077829;28;20052;-70
2022/06/06 00:55:36;;;;;;;28.10;9.02;;;;;;;;;;5077690;28;20078;-70
2022/06/06 00:58:07;;;;;;;44.35;11.02;;;;;;;;;;5072429;28;20040;-70
2022/06/06 01:00:35;;;;;;;36.92;9.75;;;;;;;;;;5072643;28;20052;-70
2022/06/06 01:03:04;;;;;;;38.78;9.48;;;;;;;;;;5077951;28;20067;-70
2022/06/06 01:05:32;;;;;;;42.50;11.30;;;;;;;;;;5067349;28;20086;-70
2022/06/06 01:07:59;;;;;;;31.67;9.27;;;;;;;;;;5071304;28;20049;-70
2022/06/06 01:10:26;;;;;;;35.95;9.43;;;;;;;;;;5077284;28;20079;-70
2022/06/06 01:12:55;;;;;;;27.67;8.90;;;;;;;;;;5072179;28;20040;-70
2022/06/06 01:15:24;;;;;;;26.88;8.35;;;;;;;;;;5077726;28;20059;-70
2022/06/06 01:17:57;;;;;;;28.20;9.13;;;;;;;;;;5076356;28;20056;-70
2022/06/06 01:20:24;;;;;;;;;;;;;;;;;;5070537;28;20658;-69
2022/06/06 01:23:06;;;;;;;31.95;9.50;;;;;;;;;;5071076;28;19982;-69
2022/06/06 01:25:55;;;;;;;43.97;12.43;;;;;;;;;;5079208;28;20540;-69
2022/06/06 01:28:36;;;;;;;35.17;9.85;;;;;;;;;;5074358;28;20085;-69
2022/06/06 01:31:07;;;;;;;38.15;10.15;;;;;;;;;;5074034;28;20108;-70
2022/06/06 01:33:48;;;;;;;33.53;10.02;;;;;;;;;;5082924;28;20048;-69
2022/06/06 01:36:15;;;;;;;87.05;16.67;;;;;;;;;;5075222;28;20218;-69
2022/06/06 01:38:42;;;;;;;85.20;18.80;;;;;;;;;;5072544;28;20141;-69
2022/06/06 01:41:11;;;;;;;48.25;12.68;;;;;;;;;;5073516;28;20403;-70
2022/06/06 01:43:44;;;;;;;45.40;13.27;;;;;;;;;;5072345;28;20048;-70
2022/06/06 01:46:13;;;;;;;45.47;12.27;;;;;;;;;;5074672;28;20770;-70
2022/06/06 01:48:42;;;;;;;37.53;12.25;;;;;;;;;;5069558;28;20871;-70
2022/06/06 01:51:09;;;;;;;58.50;14.93;;;;;;;;;;5074230;28;20048;-70
2022/06/06 01:53:37;;;;;;;49.35;14.25;;;;;;;;;;5073354;28;20056;-70
2022/06/06 01:56:05;;;;;;;40.75;11.93;;;;;;;;;;5081526;28;20048;-69
2022/06/06 01:58:33;;;;;;;50.67;14.10;;;;;;;;;;5074667;28;20543;-69
2022/06/06 02:01:02;;;;;;;50.67;14.05;;;;;;;;;;5072765;28;20049;-69
2022/06/06 02:03:30;;;;;;;166.20;27.83;;;;;;;;;;5072163;28;20052;-69
2022/06/06 02:05:57;;;;;;;49.58;15.38;;;;;;;;;;5072620;28;20056;-69
2022/06/06 02:08:25;;;;;;;55.60;16.13;;;;;;;;;;5069597;28;20458;-69
2022/06/06 02:10:52;;;;;;;105.15;21.20;;;;;;;;;;5074883;28;20041;-69
2022/06/06 02:13:19;;;;;;;49.75;16.08;;;;;;;;;;5072488;28;20055;-69
2022/06/06 02:15:46;;;;;;;355.88;45.10;;;;;;;;;;5076730;28;20102;-69
2022/06/06 02:18:15;;;;;;;57.40;15.02;;;;;;;;;;5074223;28;20507;-69
2022/06/06 02:20:42;;;;;;;315.25;35.72;;;;;;;;;;5073669;28;20049;-69
2022/06/06 02:23:10;;;;;;;35.05;11.25;;;;;;;;;;5069444;28;20056;-69
2022/06/06 02:25:37;;;;;;;47.92;14.48;;;;;;;;;;5077281;28;20084;-69
2022/06/06 02:28:05;;;;;;;44.67;14.27;;;;;;;;;;5074705;28;20044;-69
2022/06/06 02:30:34;;;;;;;344.85;42.85;;;;;;;;;;5073268;28;20075;-69
2022/06/06 02:33:01;;;;;;;56.17;16.52;;;;;;;;;;5072819;28;20052;-69
2022/06/06 02:35:31;;;;;;;65.30;17.02;;;;;;;;;;5075145;28;20109;-69
2022/06/06 02:37:58;;;;;;;73.97;20.85;;;;;;;;;;5074440;28;20052;-69
2022/06/06 02:40:26;;;;;;;125.32;21.70;;;;;;;;;;5075293;28;20460;-69
2022/06/06 02:42:53;;;;;;;70.43;16.30;;;;;;;;;;5074304;28;20055;-69
2022/06/06 02:45:21;;;;;;;39.58;12.25;;;;;;;;;;5082225;28;20060;-70
2022/06/06 02:47:49;;;;;;;68.13;17.05;;;;;;;;;;5079667;28;20051;-70
2022/06/06 02:50:17;;;;;;;79.57;18.67;;;;;;;;;;5075563;28;20059;-70
2022/06/06 02:52:46;;;;;;;75.30;18.50;;;;;;;;;;5076474;28;20039;-70
2022/06/06 02:55:14;;;;;;;100.82;19.58;;;;;;;;;;5080378;28;20056;-70
2022/06/06 02:57:42;;;;;;;47.03;13.93;;;;;;;;;;5079861;28;20047;-70
2022/06/06 03:00:10;;;;;;;68.47;17.63;;;;;;;;;;5077319;28;20114;-70
2022/06/06 03:02:38;;;;;;;26.58;10.63;;;;;;;;;;5072449;28;20482;-70
2022/06/06 03:05:05;;;;;;;147.57;26.75;;;;;;;;;;5077017;28;20101;-70
2022/06/06 03:07:38;;;;;;;227.80;32.38;;;;;;;;;;5078940;28;20048;-70
2022/06/06 03:10:14;;;;;;;28.42;11.98;;;;;;;;;;5069056;28;20097;-70
2022/06/06 03:12:46;;;;;;;41.40;15.45;;;;;;;;;;5075591;28;20060;-70
2022/06/06 03:15:31;;;;;;;42.83;14.73;;;;;;;;;;5071065;28;20076;-70
2022/06/06 03:21:00;;;;;;;26.63;10.40;;;;;;;;;;5072085;28;20059;-70
2022/06/06 03:23:40;;;;;;;60.30;16.55;;;;;;;;;;5071874;28;20080;-70
2022/06/06 03:26:12;;;;;;;33.55;12.18;;;;;;;;;;5077315;28;20139;-70
2022/06/06 03:28:42;;;;;;;38.17;12.77;;;;;;;;;;5080393;28;20059;-70
2022/06/06 03:31:16;;;;;;;85.82;20.15;;;;;;;;;;5074717;28;20522;-70
2022/06/06 03:33:48;;;;;;;45.92;14.98;;;;;;;;;;5077345;28;20052;-70
2022/06/06 03:36:19;;;;;;;56.40;15.43;;;;;;;;;;5074609;28;20055;-70
2022/06/06 03:38:47;;;;;;;33.20;13.13;;;;;;;;;;5073234;28;20044;-70
2022/06/06 03:41:20;;;;;;;33.97;14.15;;;;;;;;;;5076477;28;20540;-70
2022/06/06 03:43:53;;;;;;;29.60;13.18;;;;;;;;;;5072621;28;20068;-70
2022/06/06 03:46:29;;;;;;;63.93;18.30;;;;;;;;;;5074622;28;20060;-70
2022/06/06 03:49:03;;;;;;;48.47;15.88;;;;;;;;;;5080763;28;20394;-70
2022/06/06 03:51:36;;;;;;;33.35;14.60;;;;;;;;;;5073458;28;20580;-70
2022/06/06 03:54:08;;;;;;;41.63;15.10;;;;;;;;;;5076377;28;20048;-70
2022/06/06 03:56:45;;;;;;;34.50;14.95;;;;;;;;;;5080151;28;20056;-70
2022/06/06 03:59:12;;;;;;;42.85;15.55;;;;;;;;;;5081614;28;20043;-70
2022/06/06 04:01:41;;;;;;;72.35;20.45;;;;;;;;;;5075212;28;20044;-70
2022/06/06 04:04:08;;;;;;;37.72;15.40;;;;;;;;;;5076569;28;20602;-71
2022/06/06 04:06:36;;;;;;;56.17;18.80;;;;;;;;;;5074858;28;20051;-71
2022/06/06 04:09:03;;;;;;;36.72;16.38;;;;;;;;;;5074832;28;20117;-71
2022/06/06 04:11:51;;;;;;;45.17;18.13;;;;;;;;;;5071937;28;20068;-71
2022/06/06 04:14:23;;;;;;;59.28;20.52;;;;;;;;;;5073832;28;20056;-70
2022/06/06 04:16:55;;;;;;;45.47;19.23;;;;;;;;;;5080132;28;20048;-70
2022/06/06 04:19:28;;;;;;;84.68;25.25;;;;;;;;;;5075944;28;20075;-70
2022/06/06 04:22:01;;;;;;;36.50;17.35;;;;;;;;;;5073990;28;20044;-70
2022/06/06 04:24:36;;;;;;;41.03;18.58;;;;;;;;;;5071634;28;20048;-70
2022/06/06 04:27:07;;;;;;;45.53;20.73;;;;;;;;;;5070782;28;21444;-70
2022/06/06 04:29:52;;;;;;;35.50;17.00;;;;;;;;;;5080493;28;20113;-70
2022/06/06 04:32:24;;;;;;;37.85;17.92;;;;;;;;;;5076435;28;20472;-70
2022/06/06 04:34:54;;;;;;;51.35;18.42;;;;;;;;;;5076035;28;20098;-70
2022/06/06 04:37:26;;;;;;;37.13;16.35;;;;;;;;;;5076043;28;20048;-70
2022/06/06 04:39:55;;;;;;;62.28;21.45;;;;;;;;;;5074677;28;20509;-70
2022/06/06 04:42:26;;;;;;;33.08;16.77;;;;;;;;;;5071638;28;20044;-70
2022/06/06 04:44:59;;;;;;;48.65;19.10;;;;;;;;;;5077239;28;20486;-70
2022/06/06 04:47:29;;;;;;;40.45;17.85;;;;;;;;;;5076962;28;20061;-69
2022/06/06 04:49:57;;;;;;;39.20;18.63;;;;;;;;;;5078547;28;20288;-69
2022/06/06 04:52:24;;;;;;;38.38;16.88;;;;;;;;;;5072648;28;20135;-69
2022/06/06 04:54:52;;;;;;;48.88;19.88;;;;;;;;;;5070087;28;20105;-69
2022/06/06 04:57:20;;;;;;;72.68;24.10;;;;;;;;;;5068802;28;20108;-69
2022/06/06 04:59:50;;;;;;;36.13;17.42;;;;;;;;;;5077323;28;20062;-69
2022/06/06 05:02:17;;;;;;;55.67;20.02;;;;;;;;;;5069238;28;20043;-69
2022/06/06 05:04:44;;;;;;;94.55;25.30;;;;;;;;;;5074889;28;20487;-69
2022/06/06 05:07:23;;;;;;;92.35;22.38;;;;;;;;;;5073174;28;20902;-69
2022/06/06 05:10:02;;;;;;;33.60;15.00;;;;;;;;;;5071420;28;20491;-68
2022/06/06 05:12:38;;;;;;;65.57;21.70;;;;;;;;;;5068088;28;20052;-68
2022/06/06 05:15:11;;;;;;;52.35;20.50;;;;;;;;;;5070322;28;20101;-68
2022/06/06 05:17:53;;;;;;;34.42;15.60;;;;;;;;;;5068511;28;20514;-69
2022/06/06 05:20:35;;;;;;;22.55;11.02;;;;;;;;;;5075255;28;20044;-69
2022/06/06 05:23:20;;;;;;;13.57;5.90;;;;;;;;;;5080245;28;20134;-69
2022/06/06 05:25:53;;;;;;;11.05;5.28;;;;;;;;;;5065225;28;20053;-69
2022/06/06 05:28:39;;;;;;;11.70;5.85;;;;;;;;;;5073466;28;20071;-69
2022/06/06 05:31:15;;;;;;;13.50;5.07;;;;;;;;;;5078631;28;20051;-69
2022/06/06 05:33:46;;;;;;;11.32;5.30;;;;;;;;;;5070862;28;20053;-69
2022/06/06 05:36:19;;;;;;;18.08;5.32;;;;;;;;;;5076792;28;20101;-69
2022/06/06 05:38:55;;;;;;;11.57;4.07;;;;;;;;;;5073043;28;20498;-69
2022/06/06 05:41:28;;;;;;;10.35;3.80;;;;;;;;;;5075735;28;20081;-70
2022/06/06 05:43:59;;;;;;;10.45;4.45;;;;;;;;;;5072598;28;20169;-70
2022/06/06 05:46:39;;;;;;;11.20;4.90;;;;;;;;;;5068815;28;20114;-70
2022/06/06 05:49:25;;;;;;;26.35;6.80;;;;;;;;;;5076717;28;20053;-70
2022/06/06 05:51:59;;;;;;;25.25;8.07;;;;;;;;;;5071573;28;20060;-69
2022/06/06 05:54:36;;;;;;;18.58;7.35;;;;;;;;;;5077075;28;20453;-69
2022/06/06 05:57:24;;;;;;;23.45;7.85;;;;;;;;;;5068690;28;20064;-69
2022/06/06 06:00:16;;;;;;;20.20;7.65;;;;;;;;;;5070207;28;20064;-70
2022/06/06 06:03:13;;;;;;;24.83;8.32;;;;;;;;;;5075223;28;20048;-70
2022/06/06 06:05:48;;;;;;;21.48;7.25;;;;;;;;;;5072593;28;20509;-69
2022/06/06 06:08:23;;;;;;;18.92;5.82;;;;;;;;;;5073828;28;20105;-69
2022/06/06 06:10:54;;;;;;;12.85;4.70;;;;;;;;;;5073801;28;20109;-69
2022/06/06 06:13:44;;;;;;;14.77;5.28;;;;;;;;;;5069651;28;20116;-69
2022/06/06 06:16:12;;;;;;;20.27;6.35;;;;;;;;;;5076307;28;20048;-69
2022/06/06 06:18:43;;;;;;;17.00;7.03;;;;;;;;;;5077176;28;20142;-69
2022/06/06 06:21:13;;;;;;;19.05;6.30;;;;;;;;;;5067564;28;20071;-69
2022/06/06 06:23:42;;;;;;;19.48;7.22;;;;;;;;;;5066947;28;20090;-69
2022/06/06 06:26:09;;;;;;;21.92;6.70;;;;;;;;;;5069361;28;20041;-70
2022/06/06 06:28:37;;;;;;;15.68;6.25;;;;;;;;;;5069324;28;20044;-69
2022/06/06 06:31:17;;;;;;;21.48;7.63;;;;;;;;;;5068578;28;20052;-69
2022/06/06 06:33:51;;;;;;;32.95;8.70;;;;;;;;;;5063804;28;20048;-69
2022/06/06 06:36:28;;;;;;;22.60;7.82;;;;;;;;;;5071965;28;20052;-69
2022/06/06 06:39:06;;;;;;;39.92;9.70;;;;;;;;;;5070047;28;20098;-69
2022/06/06 06:41:37;;;;;;;28.42;8.30;;;;;;;;;;5069522;28;20490;-69
2022/06/06 06:44:09;;;;;;;39.22;10.80;;;;;;;;;;5070255;28;20056;-70
2022/06/06 06:46:40;;;;;;;30.15;8.68;;;;;;;;;;5071059;28;20136;-70
2022/06/06 06:49:14;;;;;;;24.92;7.88;;;;;;;;;;5072906;28;20048;-70
2022/06/06 06:51:45;;;;;;;39.38;10.65;;;;;;;;;;5068582;28;20048;-70
2022/06/06 06:54:19;;;;;;;23.77;8.68;;;;;;;;;;5071290;28;20573;-70
2022/06/06 06:56:53;;;;;;;28.92;7.60;;;;;;;;;;5075180;28;20487;-70
2022/06/06 06:59:24;;;;;;;20.35;6.03;;;;;;;;;;5078283;28;20073;-70
2022/06/06 07:10:35;;;;;;;20.33;4.50;;;;;;;;;;5069145;28;20576;-70
2022/06/06 07:13:16;;;;;;;15.50;3.95;;;;;;;;;;5075152;28;20179;-70
2022/06/06 07:15:46;;;;;;;17.42;4.25;;;;;;;;;;5070823;28;20052;-70
2022/06/06 07:18:15;;;;;;;14.45;3.75;;;;;;;;;;5079948;28;20047;-70
2022/06/06 07:20:45;;;;;;;17.70;3.75;;;;;;;;;;5082118;28;20056;-70
2022/06/06 07:23:13;;;;;;;12.30;3.70;;;;;;;;;;5078909;28;20106;-71
2022/06/06 07:25:42;;;;;;;13.55;3.97;;;;;;;;;;5081315;28;20051;-71
2022/06/06 07:28:11;;;;;;;12.35;3.17;;;;;;;;;;5073661;28;20049;-71
2022/06/06 07:30:40;;;;;;;9.35;3.20;;;;;;;;;;5074216;28;20052;-71
2022/06/06 07:33:20;;;;;;;9.82;3.22;;;;;;;;;;5074018;28;20414;-71
2022/06/06 07:35:54;;;;;;;8.98;2.83;;;;;;;;;;5075806;28;20056;-70
2022/06/06 07:38:26;;;;;;;11.15;3.03;;;;;;;;;;5079005;28;20052;-71
2022/06/06 07:40:59;;;;;;;8.18;2.70;;;;;;;;;;5080654;28;20044;-70
2022/06/06 07:43:36;;;;;;;9.52;3.05;;;;;;;;;;5080284;28;20407;-71
2022/06/06 07:46:06;;;;;;;8.10;3.03;;;;;;;;;;5075790;28;20098;-71
2022/06/06 07:48:52;;;;;;;8.95;3.03;;;;;;;;;;5082553;28;20072;-71
2022/06/06 07:51:27;;;;;;;8.05;2.80;;;;;;;;;;5076163;28;20052;-71
2022/06/06 07:53:58;;;;;;;5.72;2.80;;;;;;;;;;5084555;28;20044;-71
2022/06/06 07:56:28;;;;;;;11.07;3.10;;;;;;;;;;5073697;28;20109;-71
2022/06/06 07:59:00;;;;;;;8.32;2.50;;;;;;;;;;5076880;28;20048;-71
2022/06/06 08:01:30;;;;;;;5.78;2.92;;;;;;;;;;5069505;28;20060;-71
2022/06/06 08:04:04;;;;;;;9.88;3.42;;;;;;;;;;5072204;28;20049;-71
2022/06/06 08:06:31;;;;;;;;;;;;;;;;;;5082310;28;20097;-71
2022/06/06 08:09:05;;;;;;;8.15;2.65;;;;;;;;;;5073185;28;19931;-71
2022/06/06 08:11:39;;;;;;;12.20;2.38;;;;;;;;;;5074879;28;20119;-71
2022/06/06 08:14:14;;;;;;;4.80;1.95;;;;;;;;;;5069674;28;20040;-71
2022/06/06 08:16:43;;;;;;;9.35;2.20;;;;;;;;;;5070245;28;20048;-71
2022/06/06 08:19:25;;;;;;;8.25;1.73;;;;;;;;;;5071719;28;20059;-71
2022/06/06 08:21:52;;;;;;;6.65;2.00;;;;;;;;;;5076266;28;20676;-71
2022/06/06 08:24:23;;;;;;;6.90;2.28;;;;;;;;;;5076493;28;20040;-71
2022/06/06 08:26:52;;;;;;;10.07;2.53;;;;;;;;;;5075304;28;20890;-71
2022/06/06 08:29:20;;;;;;;6.20;2.22;;;;;;;;;;5073142;28;20602;-71
2022/06/06 08:31:47;;;;;;;5.43;1.90;;;;;;;;;;5074359;28;20048;-71
2022/06/06 08:34:14;;;;;;;6.22;2.35;;;;;;;;;;5071505;28;20086;-71
2022/06/06 08:36:48;;;;;;;9.00;2.55;;;;;;;;;;5074911;28;20103;-71
2022/06/06 08:39:21;;;;;;;8.30;2.47;;;;;;;;;;5072168;28;20100;-71
2022/06/06 08:41:48;;;;;;;;;;;;;;;;;;5080541;28;20048;-71
2022/06/06 08:44:27;;;;;;;6.07;2.78;;;;;;;;;;5076379;28;20326;-71
2022/06/06 08:47:06;;;;;;;7.97;3.10;;;;;;;;;;5077890;28;20436;-71
2022/06/06 08:52:37;;;;;;;7.05;2.83;;;;;;;;;;5033138;28;20059;-71
2022/06/06 08:55:19;;;;;;;6.93;3.08;;;;;;;;;;5070565;28;20081;-71
2022/06/06 08:57:57;;;;;;;7.65;3.17;;;;;;;;;;5068242;28;20048;-71
2022/06/06 09:00:38;;;;;;;6.88;3.17;;;;;;;;;;5073643;28;20055;-70
2022/06/06 09:03:30;;;;;;;9.40;3.35;;;;;;;;;;5072950;28;20110;-70
2022/06/06 09:06:00;;;;;;;9.85;3.72;;;;;;;;;;5072403;28;20048;-70
2022/06/06 09:08:49;;;;;;;9.27;4.18;;;;;;;;;;5074853;28;20065;-70
2022/06/06 09:11:43;;;;;;;10.75;4.38;;;;;;;;;;5072873;28;20429;-70
2022/06/06 09:14:22;;;;;;;10.60;4.47;;;;;;;;;;5076237;28;20052;-70
2022/06/06 09:17:04;;;;;;;10.25;4.35;;;;;;;;;;5072956;28;20071;-70
2022/06/06 09:19:49;;;;;;;13.20;5.55;;;;;;;;;;5069330;28;20062;-70
2022/06/06 09:22:34;;;;;;;18.98;5.00;;;;;;;;;;5068702;28;20052;-70
2022/06/06 09:25:16;;;;;;;28.60;7.60;;;;;;;;;;5076098;28;20453;-69
2022/06/06 09:28:12;;;;;;;23.52;7.47;;;;;;;;;;5068826;28;20048;-69
2022/06/06 09:31:00;;;;;;;18.50;6.22;;;;;;;;;;5069330;28;20048;-70
2022/06/06 09:33:50;;;;;;;14.55;6.55;;;;;;;;;;5070567;28;20047;-70
2022/06/06 09:36:23;;;;;;;29.73;4.95;;;;;;;;;;5073944;28;20044;-70
2022/06/06 09:38:57;;;;;;;25.58;5.10;;;;;;;;;;5069434;28;20049;-70
2022/06/06 09:41:36;;;;;;;23.50;5.30;;;;;;;;;;5070382;28;20055;-69
2022/06/06 09:44:11;;;;;;;22.85;7.03;;;;;;;;;;5073360;28;20533;-70
2022/06/06 09:46:59;;;;;;;16.73;5.68;;;;;;;;;;5076763;28;20056;-71
2022/06/06 09:49:44;;;;;;;12.43;4.03;;;;;;;;;;5066507;28;20056;-70
2022/06/06 09:52:25;;;;;;;16.85;5.47;;;;;;;;;;5072229;28;20469;-71
2022/06/06 10:01:10;;;;;;;23.88;9.48;;;;;;;;;;5072255;28;20098;-70
2022/06/06 10:04:05;;;;;;;30.88;10.50;;;;;;;;;;5071453;28;20053;-71
2022/06/06 10:06:54;;;;;;;29.60;10.50;;;;;;;;;;5075637;28;20502;-71
2022/06/06 10:09:46;;;;;;;37.25;13.50;;;;;;;;;;5075435;28;20052;-71
2022/06/06 10:12:28;;;;;;;22.85;11.10;;;;;;;;;;5049255;28;20076;-71
2022/06/06 10:15:09;;;;;;;22.52;8.77;;;;;;;;;;5070336;28;20847;-71
2022/06/06 10:17:57;;;;;;;22.42;11.38;;;;;;;;;;5067586;28;20060;-71
2022/06/06 10:20:32;;;;;;;29.77;10.27;;;;;;;;;;5070522;28;20063;-70
2022/06/06 10:23:14;;;;;;;13.07;4.47;;;;;;;;;;5080014;28;20518;-71
2022/06/06 10:25:59;;;;;;;18.75;3.08;;;;;;;;;;5077151;28;20047;-70
2022/06/06 10:28:38;;;;;;;20.40;4.55;;;;;;;;;;5074426;28;20066;-70
2022/06/06 10:31:14;;;;;;;10.85;3.65;;;;;;;;;;5069276;28;20122;-71
2022/06/06 10:34:08;;;;;;;15.98;4.60;;;;;;;;;;5069877;28;20114;-71
2022/06/06 10:36:53;;;;;;;16.80;5.05;;;;;;;;;;5032661;28;20101;-71
2022/06/06 10:39:36;;;;;;;23.13;6.05;;;;;;;;;;5050246;28;20059;-70
2022/06/06 10:42:20;;;;;;;30.77;6.05;;;;;;;;;;5069091;28;20403;-71
2022/06/06 10:45:00;;;;;;;33.05;7.07;;;;;;;;;;5070684;28;20048;-70
2022/06/06 10:47:35;;;;;;;15.68;5.18;;;;;;;;;;5071822;28;20056;-69
2022/06/06 10:50:05;;;;;;;18.88;5.03;;;;;;;;;;5074597;28;20048;-70
2022/06/06 10:52:46;;;;;;;24.88;6.68;;;;;;;;;;5080451;28;20056;-69
2022/06/06 10:55:32;;;;;;;19.13;5.75;;;;;;;;;;5080434;28;20040;-69
2022/06/06 10:58:17;;;;;;;30.25;6.10;;;;;;;;;;5081140;28;20782;-70
2022/06/06 11:01:04;;;;;;;14.05;4.15;;;;;;;;;;5080162;28;20047;-69
2022/06/06 11:03:50;;;;;;;9.77;3.60;;;;;;;;;;5079042;28;20047;-69
2022/06/06 11:06:42;;;;;;;26.40;5.95;;;;;;;;;;5077604;28;20051;-69
2022/06/06 11:09:21;;;;;;;46.30;6.88;;;;;;;;;;5082539;28;20101;-69
2022/06/06 11:12:04;;;;;;;28.67;7.32;;;;;;;;;;5080346;28;20442;-69
2022/06/06 11:14:32;;;;;;;;;;;;;;;;;;5073750;28;20518;-69
2022/06/06 11:17:20;;;;;;;28.75;7.55;;;;;;;;;;5076444;28;20027;-69
2022/06/06 11:20:09;;;;;;;23.52;7.85;;;;;;;;;;5083777;28;20047;-69
2022/06/06 11:22:38;;;;;;;52.15;10.95;;;;;;;;;;5082824;28;20063;-69
2022/06/06 11:25:10;;;;;;;28.08;9.25;;;;;;;;;;5077562;28;20518;-69
2022/06/06 11:27:55;;;;;;;18.38;7.50;;;;;;;;;;5083120;28;20430;-69
2022/06/06 11:30:39;;;;;;;28.35;8.88;;;;;;;;;;5077191;28;20052;-69
2022/06/06 11:33:06;;;;;;;;;;;;;;;;;;5076396;28;20075;-69
2022/06/06 11:35:41;;;;;;;23.10;9.05;;;;;;;;;;5076213;28;19924;-69
2022/06/06 11:38:18;;;;;;;17.88;8.23;;;;;;;;;;5076785;28;20064;-70
2022/06/06 11:41:00;;;;;;;17.67;6.53;;;;;;;;;;5082621;28;20055;-69
2022/06/06 11:43:45;;;;;;;21.05;7.28;;;;;;;;;;5076619;28;20056;-69
2022/06/06 11:46:31;;;;;;;17.63;7.25;;;;;;;;;;5076749;28;20051;-69
2022/06/06 11:49:19;;;;;;;21.80;7.68;;;;;;;;;;5073899;28;20089;-69
2022/06/06 11:52:04;;;;;;;28.05;9.35;;;;;;;;;;5046812;28;20052;-69
2022/06/06 11:55:01;;;;;;;22.98;9.40;;;;;;;;;;5053859;28;20048;-69
2022/06/06 11:57:50;;;;;;;26.80;9.13;;;;;;;;;;5071506;28;20071;-69
2022/06/06 12:00:21;;;;;;;32.42;8.10;;;;;;;;;;5074690;28;20048;-69
2022/06/06 12:03:09;;;;;;;51.83;8.90;;;;;;;;;;5074549;28;20058;-69
2022/06/06 12:05:53;;;;;;;24.30;7.03;;;;;;;;;;5077529;28;20395;-69
2022/06/06 12:08:26;;;;;;;19.27;7.10;;;;;;;;;;5078247;28;20048;-69
2022/06/06 12:11:04;;;;;;;20.90;6.47;;;;;;;;;;5069756;28;20078;-69
2022/06/06 12:13:46;;;;;;;22.88;8.20;;;;;;;;;;5080556;28;20063;-69
2022/06/06 12:16:18;;;;;;;22.08;9.15;;;;;;;;;;5077009;28;20044;-69
2022/06/06 12:18:59;;;;;;;23.90;9.23;;;;;;;;;;5071206;28;20052;-69
2022/06/06 12:21:48;;;;;;;17.58;8.77;;;;;;;;;;5082024;28;20503;-70
2022/06/06 12:24:31;;;;;;;27.98;10.15;;;;;;;;;;5057906;28;20052;-69
2022/06/06 12:27:09;;;;;;;30.00;11.35;;;;;;;;;;5076731;28;20445;-70
2022/06/06 12:29:49;;;;;;;30.02;11.60;;;;;;;;;;5078537;28;20055;-70
2022/06/06 12:32:25;;;;;;;19.58;8.52;;;;;;;;;;5072026;28;20106;-70
2022/06/06 12:34:55;;;;;;;18.85;9.25;;;;;;;;;;5079612;28;20297;-71
2022/06/06 12:37:24;;;;;;;21.90;10.13;;;;;;;;;;5080440;28;20049;-70
2022/06/06 12:40:04;;;;;;;19.88;9.85;;;;;;;;;;5076154;28;20120;-70
2022/06/06 12:42:43;;;;;;;11.75;6.18;;;;;;;;;;5076425;28;20052;-71
2022/06/06 12:45:29;;;;;;;10.10;5.40;;;;;;;;;;5079864;28;20097;-71
2022/06/06 12:48:12;;;;;;;11.63;5.13;;;;;;;;;;5077448;28;20517;-70
2022/06/06 12:50:50;;;;;;;11.77;4.82;;;;;;;;;;5076786;28;20455;-71
2022/06/06 12:53:33;;;;;;;8.73;2.70;;;;;;;;;;5080118;28;20105;-70
2022/06/06 12:56:20;;;;;;;7.18;2.28;;;;;;;;;;5067479;28;20068;-70
2022/06/06 12:58:52;;;;;;;7.82;1.85;;;;;;;;;;5073422;28;20064;-70
2022/06/06 13:01:40;;;;;;;14.43;1.63;;;;;;;;;;5076331;28;20055;-70
2022/06/06 13:04:16;;;;;;;8.07;1.50;;;;;;;;;;5071899;28;20057;-69
2022/06/06 13:06:49;;;;;;;6.40;1.20;;;;;;;;;;5079280;28;20517;-69
2022/06/06 13:09:22;;;;;;;11.77;1.83;;;;;;;;;;5076071;28;20052;-68
2022/06/06 13:11:51;;;;;;;7.70;1.30;;;;;;;;;;5075649;28;20051;-68
2022/06/06 13:14:29;;;;;;;8.65;1.38;;;;;;;;;;5071974;28;20658;-69
2022/06/06 13:17:04;;;;;;;4.03;0.90;;;;;;;;;;5068474;28;20427;-69
2022/06/06 13:19:38;;;;;;;6.05;1.38;;;;;;;;;;5069441;28;20138;-69
2022/06/06 13:22:14;;;;;;;4.35;1.08;;;;;;;;;;5071281;28;20130;-69
2022/06/06 13:24:54;;;;;;;7.20;1.42;;;;;;;;;;5073870;28;20109;-69
2022/06/06 13:27:27;;;;;;;3.30;1.25;;;;;;;;;;5077559;28;20049;-69
2022/06/06 13:29:55;;;;;;;4.97;1.40;;;;;;;;;;5077237;28;20388;-69
2022/06/06 13:32:37;;;;;;;7.82;1.60;;;;;;;;;;5071517;28;20051;-69
2022/06/06 13:35:12;;;;;;;4.70;1.50;;;;;;;;;;5067645;28;20048;-69
2022/06/06 13:37:45;;;;;;;5.22;1.85;;;;;;;;;;5075750;28;20143;-69
2022/06/06 13:40:23;;;;;;;7.80;2.00;;;;;;;;;;5074789;28;20048;-69
2022/06/06 13:43:20;;;;;;;5.88;1.60;;;;;;;;;;5078175;28;20084;-69
2022/06/06 13:45:50;;;;;;;7.88;1.98;;;;;;;;;;5075740;28;20105;-69
2022/06/06 13:48:27;;;;;;;6.05;1.90;;;;;;;;;;5074958;28;20048;-69
2022/06/06 13:51:01;;;;;;;5.57;1.65;;;;;;;;;;5076622;28;20106;-69
2022/06/06 13:53:39;;;;;;;8.45;2.70;;;;;;;;;;5069197;28;20049;-69
2022/06/06 13:56:11;;;;;;;9.23;2.42;;;;;;;;;;5077356;28;21302;-69
2022/06/06 13:58:45;;;;;;;7.22;3.60;;;;;;;;;;5074168;28;20048;-69
2022/06/06 14:01:19;;;;;;;10.30;3.90;;;;;;;;;;5075269;28;20048;-69
2022/06/06 14:03:54;;;;;;;15.20;3.70;;;;;;;;;;5070424;28;20131;-69
2022/06/06 14:06:31;;;;;;;8.52;3.50;;;;;;;;;;5071144;28;20048;-69
2022/06/06 14:08:59;;;;;;;11.25;3.63;;;;;;;;;;5073247;28;20055;-69
2022/06/06 14:11:40;;;;;;;4.97;3.20;;;;;;;;;;5078328;28;20060;-69
2022/06/06 14:14:07;;;;;;;5.93;2.35;;;;;;;;;;5072708;28;20052;-69
2022/06/06 14:16:38;;;;;;;5.38;3.13;;;;;;;;;;5073555;28;20094;-69
2022/06/06 14:19:11;;;;;;;5.82;3.00;;;;;;;;;;5072240;28;20140;-69
2022/06/06 14:21:39;;;;;;;8.60;2.70;;;;;;;;;;5068935;28;20063;-69
2022/06/06 14:24:07;;;;;;;4.95;2.47;;;;;;;;;;5070337;28;20055;-69
2022/06/06 14:26:34;;;;;;;6.05;2.92;;;;;;;;;;5077846;28;20052;-69
2022/06/06 14:29:05;;;;;;;20.27;6.05;;;;;;;;;;5077752;28;20052;-69
2022/06/06 14:31:36;;;;;;;7.20;4.13;;;;;;;;;;5074594;28;20094;-69
2022/06/06 14:34:17;;;;;;;15.05;5.65;;;;;;;;;;5077001;28;20109;-69
2022/06/06 14:36:46;;;;;;;5.15;2.45;;;;;;;;;;5079050;28;20048;-69
2022/06/06 14:39:22;;;;;;;12.45;5.00;;;;;;;;;;5077030;28;20044;-69
2022/06/06 14:41:50;;;;;;;10.18;3.80;;;;;;;;;;5079784;28;20479;-69
2022/06/06 14:44:28;;;;;;;7.95;3.58;;;;;;;;;;5078931;28;20060;-69
2022/06/06 14:47:05;;;;;;;22.77;6.50;;;;;;;;;;5074262;28;20060;-69
2022/06/06 14:49:36;;;;;;;17.67;5.68;;;;;;;;;;5077058;28;20054;-69
2022/06/06 14:52:10;;;;;;;20.63;6.13;;;;;;;;;;5073219;28;20052;-69
2022/06/06 14:54:38;;;;;;;16.13;4.47;;;;;;;;;;5074685;28;20056;-69
2022/06/06 14:57:07;;;;;;;12.23;4.13;;;;;;;;;;5072850;28;20052;-69
2022/06/06 14:59:38;;;;;;;12.70;4.75;;;;;;;;;;5075639;28;20143;-69
2022/06/06 15:02:13;;;;;;;12.95;3.88;;;;;;;;;;5073167;28;20056;-69
2022/06/06 15:04:42;;;;;;;15.98;4.63;;;;;;;;;;5076537;28;20051;-69
2022/06/06 15:07:10;;;;;;;14.73;5.13;;;;;;;;;;5070963;28;21444;-69
2022/06/06 15:09:39;;;;;;;12.65;4.85;;;;;;;;;;5072977;28;20051;-69
2022/06/06 15:12:07;;;;;;;19.02;6.40;;;;;;;;;;5074062;28;20056;-69
2022/06/06 15:14:36;;;;;;;13.43;5.07;;;;;;;;;;5076789;28;20366;-69
2022/06/06 15:17:04;;;;;;;20.00;6.90;;;;;;;;;;5074324;28;20395;-69
2022/06/06 15:19:38;;;;;;;16.48;5.95;;;;;;;;;;5079509;28;21373;-69
2022/06/06 15:22:07;;;;;;;9.65;3.85;;;;;;;;;;5078375;28;20055;-69
2022/06/06 15:24:36;;;;;;;13.73;4.45;;;;;;;;;;5073005;28;20525;-69
2022/06/06 15:27:05;;;;;;;16.85;6.45;;;;;;;;;;5070471;28;20040;-69
2022/06/06 15:29:34;;;;;;;16.90;6.60;;;;;;;;;;5075384;28;20583;-69
2022/06/06 15:32:08;;;;;;;18.45;5.38;;;;;;;;;;5081761;28;20048;-69
2022/06/06 15:34:47;;;;;;;20.13;7.28;;;;;;;;;;5072990;28;20117;-69